Terminal Aerodrome Forecast
Issued by NWS

Home | Current Version | Previous Version | Text Only | Print | Product List | Glossary Off
Versions: 1 2 3 4 5 6 7 8 9 10 11 12 13 14 15 16 17 18 19 20 21 22

000
FTUS43 KGRB 262300
TAFMTW
TAF
KMTW 262330Z 2700/2724 30004KT P6SM SCT022 BKN070
      TEMPO 2700/2704 BKN022
     FM270600 32008KT 6SM -SN SCT014 BKN025
     FM271100 32010G15KT 2SM -SHSN BKN014
     FM271300 32012G21KT P6SM -SN SCT025 BKN050
     FM272000 32009KT P6SM SCT050=

USA.gov is the U.S. government's official web portal to all federal, state and local government web resources and services.